sensor_id;sensor_type;location;lat;lon;timestamp;P1;durP1;ratioP1;P2;durP2;ratioP2
22965;SDS011;11649;48.090;9.754;2023-03-20T00:00:34;5.47;;;3.97;;
22965;SDS011;11649;48.090;9.754;2023-03-20T00:03:01;5.88;;;3.85;;
22965;SDS011;11649;48.090;9.754;2023-03-20T00:05:29;5.90;;;3.80;;
22965;SDS011;11649;48.090;9.754;2023-03-20T00:07:57;5.15;;;4.20;;
22965;SDS011;11649;48.090;9.754;2023-03-20T00:10:25;4.28;;;3.88;;
22965;SDS011;11649;48.090;9.754;2023-03-20T00:13:03;4.20;;;3.80;;
22965;SDS011;11649;48.090;9.754;2023-03-20T00:15:33;4.20;;;3.80;;
22965;SDS011;11649;48.090;9.754;2023-03-20T00:18:08;4.60;;;4.20;;
22965;SDS011;11649;48.090;9.754;2023-03-20T00:20:44;6.18;;;4.22;;
22965;SDS011;11649;48.090;9.754;2023-03-20T00:23:12;4.90;;;4.10;;
22965;SDS011;11649;48.090;9.754;2023-03-20T00:25:39;4.53;;;4.07;;
22965;SDS011;11649;48.090;9.754;2023-03-20T00:28:30;4.63;;;4.03;;
22965;SDS011;11649;48.090;9.754;2023-03-20T00:33:51;4.28;;;3.88;;
22965;SDS011;11649;48.090;9.754;2023-03-20T00:36:22;5.00;;;4.10;;
22965;SDS011;11649;48.090;9.754;2023-03-20T00:38:49;3.85;;;3.45;;
22965;SDS011;11649;48.090;9.754;2023-03-20T00:41:27;4.22;;;3.53;;
22965;SDS011;11649;48.090;9.754;2023-03-20T00:43:55;3.83;;;3.42;;
22965;SDS011;11649;48.090;9.754;2023-03-20T00:46:26;4.20;;;3.60;;
22965;SDS011;11649;48.090;9.754;2023-03-20T00:48:54;4.85;;;3.20;;
22965;SDS011;11649;48.090;9.754;2023-03-20T00:51:21;3.72;;;3.22;;
22965;SDS011;11649;48.090;9.754;2023-03-20T00:53:48;3.50;;;3.20;;
22965;SDS011;11649;48.090;9.754;2023-03-20T00:56:23;4.15;;;3.42;;
22965;SDS011;11649;48.090;9.754;2023-03-20T00:58:59;4.15;;;3.30;;
22965;SDS011;11649;48.090;9.754;2023-03-20T01:01:28;3.90;;;3.25;;
22965;SDS011;11649;48.090;9.754;2023-03-20T01:03:57;4.13;;;3.40;;
22965;SDS011;11649;48.090;9.754;2023-03-20T01:06:24;4.43;;;3.50;;
22965;SDS011;11649;48.090;9.754;2023-03-20T01:08:51;5.00;;;3.70;;
22965;SDS011;11649;48.090;9.754;2023-03-20T01:11:20;4.78;;;3.65;;
22965;SDS011;11649;48.090;9.754;2023-03-20T01:13:48;5.47;;;3.88;;
22965;SDS011;11649;48.090;9.754;2023-03-20T01:16:19;4.25;;;3.85;;
22965;SDS011;11649;48.090;9.754;2023-03-20T01:18:48;4.20;;;3.80;;
22965;SDS011;11649;48.090;9.754;2023-03-20T01:21:16;6.75;;;3.67;;
22965;SDS011;11649;48.090;9.754;2023-03-20T01:23:43;5.07;;;3.92;;
22965;SDS011;11649;48.090;9.754;2023-03-20T01:26:18;4.18;;;3.78;;
22965;SDS011;11649;48.090;9.754;2023-03-20T01:28:55;4.32;;;3.85;;
22965;SDS011;11649;48.090;9.754;2023-03-20T01:31:22;4.82;;;4.07;;
22965;SDS011;11649;48.090;9.754;2023-03-20T01:33:49;4.50;;;4.00;;
22965;SDS011;11649;48.090;9.754;2023-03-20T01:36:17;4.90;;;4.40;;
22965;SDS011;11649;48.090;9.754;2023-03-20T01:38:53;6.07;;;4.05;;
22965;SDS011;11649;48.090;9.754;2023-03-20T01:41:22;5.10;;;3.83;;
22965;SDS011;11649;48.090;9.754;2023-03-20T01:43:50;4.78;;;3.85;;
22965;SDS011;11649;48.090;9.754;2023-03-20T01:46:27;5.53;;;4.10;;
22965;SDS011;11649;48.090;9.754;2023-03-20T01:48:59;4.30;;;3.90;;
22965;SDS011;11649;48.090;9.754;2023-03-20T01:51:33;5.10;;;3.72;;
22965;SDS011;11649;48.090;9.754;2023-03-20T01:54:03;4.10;;;3.70;;
22965;SDS011;11649;48.090;9.754;2023-03-20T01:56:36;3.97;;;3.50;;
22965;SDS011;11649;48.090;9.754;2023-03-20T01:59:25;4.50;;;3.58;;
22965;SDS011;11649;48.090;9.754;2023-03-20T02:01:56;4.00;;;3.60;;
22965;SDS011;11649;48.090;9.754;2023-03-20T02:04:24;3.72;;;3.42;;
22965;SDS011;11649;48.090;9.754;2023-03-20T02:06:58;4.63;;;3.60;;
22965;SDS011;11649;48.090;9.754;2023-03-20T02:09:25;4.47;;;3.53;;
22965;SDS011;11649;48.090;9.754;2023-03-20T02:11:52;5.30;;;3.60;;
22965;SDS011;11649;48.090;9.754;2023-03-20T02:14:20;3.97;;;3.60;;
22965;SDS011;11649;48.090;9.754;2023-03-20T02:16:48;4.07;;;3.67;;
22965;SDS011;11649;48.090;9.754;2023-03-20T02:19:17;5.78;;;3.90;;
22965;SDS011;11649;48.090;9.754;2023-03-20T02:31:13;7.35;;;5.00;;
22965;SDS011;11649;48.090;9.754;2023-03-20T02:33:54;4.75;;;4.25;;
22965;SDS011;11649;48.090;9.754;2023-03-20T02:36:35;5.68;;;4.57;;
22965;SDS011;11649;48.090;9.754;2023-03-20T02:44:45;6.68;;;5.05;;
22965;SDS011;11649;48.090;9.754;2023-03-20T02:50:14;6.15;;;5.22;;
22965;SDS011;11649;48.090;9.754;2023-03-20T02:53:05;5.97;;;5.00;;
22965;SDS011;11649;48.090;9.754;2023-03-20T02:58:22;6.03;;;5.15;;
22965;SDS011;11649;48.090;9.754;2023-03-20T03:01:02;6.68;;;4.82;;
22965;SDS011;11649;48.090;9.754;2023-03-20T03:03:43;7.53;;;4.95;;
22965;SDS011;11649;48.090;9.754;2023-03-20T03:06:22;6.28;;;5.30;;
22965;SDS011;11649;48.090;9.754;2023-03-20T03:09:00;7.38;;;5.85;;
22965;SDS011;11649;48.090;9.754;2023-03-20T03:11:49;7.18;;;6.18;;
22965;SDS011;11649;48.090;9.754;2023-03-20T03:17:22;7.78;;;6.70;;
22965;SDS011;11649;48.090;9.754;2023-03-20T03:19:52;6.80;;;6.10;;
22965;SDS011;11649;48.090;9.754;2023-03-20T03:22:23;8.05;;;6.57;;
22965;SDS011;11649;48.090;9.754;2023-03-20T03:24:51;8.23;;;6.47;;
22965;SDS011;11649;48.090;9.754;2023-03-20T03:27:23;9.18;;;7.18;;
22965;SDS011;11649;48.090;9.754;2023-03-20T03:29:55;7.30;;;6.57;;
22965;SDS011;11649;48.090;9.754;2023-03-20T03:32:45;10.68;;;7.47;;
22965;SDS011;11649;48.090;9.754;2023-03-20T03:35:19;10.68;;;7.25;;
22965;SDS011;11649;48.090;9.754;2023-03-20T03:40:31;9.45;;;7.10;;
22965;SDS011;11649;48.090;9.754;2023-03-20T03:43:17;9.80;;;7.30;;
22965;SDS011;11649;48.090;9.754;2023-03-20T03:45:57;9.18;;;7.05;;
22965;SDS011;11649;48.090;9.754;2023-03-20T03:48:34;8.45;;;6.90;;
22965;SDS011;11649;48.090;9.754;2023-03-20T03:51:06;9.38;;;7.15;;
22965;SDS011;11649;48.090;9.754;2023-03-20T03:53:38;8.60;;;7.20;;
22965;SDS011;11649;48.090;9.754;2023-03-20T03:56:09;8.82;;;7.18;;
22965;SDS011;11649;48.090;9.754;2023-03-20T03:58:42;10.52;;;7.50;;
22965;SDS011;11649;48.090;9.754;2023-03-20T04:01:14;8.60;;;7.40;;
22965;SDS011;11649;48.090;9.754;2023-03-20T04:03:45;8.60;;;6.90;;
22965;SDS011;11649;48.090;9.754;2023-03-20T04:06:16;8.75;;;7.10;;
22965;SDS011;11649;48.090;9.754;2023-03-20T04:08:43;8.32;;;7.00;;
22965;SDS011;11649;48.090;9.754;2023-03-20T04:11:17;9.70;;;7.38;;
22965;SDS011;11649;48.090;9.754;2023-03-20T04:13:46;8.75;;;7.40;;
22965;SDS011;11649;48.090;9.754;2023-03-20T04:16:15;9.75;;;7.47;;
22965;SDS011;11649;48.090;9.754;2023-03-20T04:18:43;8.45;;;7.07;;
22965;SDS011;11649;48.090;9.754;2023-03-20T04:21:10;7.93;;;6.55;;
22965;SDS011;11649;48.090;9.754;2023-03-20T04:23:38;8.65;;;7.47;;
22965;SDS011;11649;48.090;9.754;2023-03-20T04:26:05;10.10;;;6.97;;
22965;SDS011;11649;48.090;9.754;2023-03-20T04:28:32;8.10;;;6.72;;
22965;SDS011;11649;48.090;9.754;2023-03-20T04:31:00;11.70;;;7.18;;
22965;SDS011;11649;48.090;9.754;2023-03-20T04:33:27;8.50;;;6.82;;
22965;SDS011;11649;48.090;9.754;2023-03-20T04:35:55;9.43;;;6.50;;
22965;SDS011;11649;48.090;9.754;2023-03-20T04:38:22;9.02;;;8.02;;
22965;SDS011;11649;48.090;9.754;2023-03-20T04:40:49;9.77;;;8.32;;
22965;SDS011;11649;48.090;9.754;2023-03-20T04:43:16;11.68;;;8.85;;
22965;SDS011;11649;48.090;9.754;2023-03-20T04:45:43;10.65;;;8.48;;
22965;SDS011;11649;48.090;9.754;2023-03-20T04:48:11;11.73;;;9.57;;
22965;SDS011;11649;48.090;9.754;2023-03-20T04:50:37;13.05;;;9.45;;
22965;SDS011;11649;48.090;9.754;2023-03-20T04:53:04;11.02;;;8.32;;
22965;SDS011;11649;48.090;9.754;2023-03-20T04:55:31;10.93;;;8.50;;
22965;SDS011;11649;48.090;9.754;2023-03-20T04:57:58;14.00;;;11.20;;
22965;SDS011;11649;48.090;9.754;2023-03-20T05:00:25;14.77;;;12.02;;
22965;SDS011;11649;48.090;9.754;2023-03-20T05:02:52;12.40;;;11.10;;
22965;SDS011;11649;48.090;9.754;2023-03-20T05:05:19;14.23;;;12.15;;
22965;SDS011;11649;48.090;9.754;2023-03-20T05:11:33;15.50;;;11.10;;
22965;SDS011;11649;48.090;9.754;2023-03-20T05:14:00;16.83;;;12.27;;
22965;SDS011;11649;48.090;9.754;2023-03-20T05:16:27;18.80;;;14.00;;
22965;SDS011;11649;48.090;9.754;2023-03-20T05:18:54;17.42;;;12.93;;
22965;SDS011;11649;48.090;9.754;2023-03-20T05:21:20;18.25;;;15.15;;
22965;SDS011;11649;48.090;9.754;2023-03-20T05:23:47;13.82;;;10.95;;
22965;SDS011;11649;48.090;9.754;2023-03-20T05:26:14;10.18;;;8.23;;
22965;SDS011;11649;48.090;9.754;2023-03-20T05:28:41;10.73;;;7.80;;
22965;SDS011;11649;48.090;9.754;2023-03-20T05:31:07;12.23;;;6.80;;
22965;SDS011;11649;48.090;9.754;2023-03-20T05:33:34;8.10;;;6.70;;
22965;SDS011;11649;48.090;9.754;2023-03-20T05:36:03;7.57;;;6.78;;
22965;SDS011;11649;48.090;9.754;2023-03-20T05:38:31;7.45;;;6.60;;
22965;SDS011;11649;48.090;9.754;2023-03-20T05:40:58;8.82;;;6.50;;
22965;SDS011;11649;48.090;9.754;2023-03-20T05:43:26;8.05;;;7.00;;
22965;SDS011;11649;48.090;9.754;2023-03-20T05:45:54;8.95;;;7.35;;
22965;SDS011;11649;48.090;9.754;2023-03-20T05:48:22;8.73;;;7.15;;
22965;SDS011;11649;48.090;9.754;2023-03-20T05:50:49;8.68;;;7.13;;
22965;SDS011;11649;48.090;9.754;2023-03-20T05:53:16;12.77;;;9.00;;
22965;SDS011;11649;48.090;9.754;2023-03-20T05:55:42;12.50;;;9.95;;
22965;SDS011;11649;48.090;9.754;2023-03-20T05:58:10;17.30;;;12.68;;
22965;SDS011;11649;48.090;9.754;2023-03-20T06:00:37;14.25;;;11.77;;
22965;SDS011;11649;48.090;9.754;2023-03-20T06:03:04;11.52;;;10.05;;
22965;SDS011;11649;48.090;9.754;2023-03-20T06:05:34;9.30;;;8.23;;
22965;SDS011;11649;48.090;9.754;2023-03-20T06:08:02;8.77;;;7.88;;
22965;SDS011;11649;48.090;9.754;2023-03-20T06:10:29;7.82;;;7.00;;
22965;SDS011;11649;48.090;9.754;2023-03-20T06:12:57;8.50;;;7.57;;
22965;SDS011;11649;48.090;9.754;2023-03-20T06:15:26;9.95;;;8.23;;
22965;SDS011;11649;48.090;9.754;2023-03-20T06:17:54;9.98;;;7.93;;
22965;SDS011;11649;48.090;9.754;2023-03-20T06:20:21;11.55;;;8.10;;
22965;SDS011;11649;48.090;9.754;2023-03-20T06:22:48;9.10;;;7.68;;
22965;SDS011;11649;48.090;9.754;2023-03-20T06:25:16;8.55;;;7.10;;
22965;SDS011;11649;48.090;9.754;2023-03-20T06:27:45;9.40;;;7.28;;
22965;SDS011;11649;48.090;9.754;2023-03-20T06:30:13;10.40;;;7.93;;
22965;SDS011;11649;48.090;9.754;2023-03-20T06:32:40;7.93;;;6.63;;
22965;SDS011;11649;48.090;9.754;2023-03-20T06:35:08;10.32;;;7.28;;
22965;SDS011;11649;48.090;9.754;2023-03-20T06:37:36;8.32;;;7.38;;
22965;SDS011;11649;48.090;9.754;2023-03-20T06:40:03;9.52;;;7.53;;
22965;SDS011;11649;48.090;9.754;2023-03-20T06:42:31;10.52;;;7.15;;
22965;SDS011;11649;48.090;9.754;2023-03-20T06:44:58;8.93;;;7.35;;
22965;SDS011;11649;48.090;9.754;2023-03-20T06:47:25;9.30;;;7.65;;
22965;SDS011;11649;48.090;9.754;2023-03-20T06:49:52;9.32;;;6.75;;
22965;SDS011;11649;48.090;9.754;2023-03-20T06:52:19;10.90;;;8.88;;
22965;SDS011;11649;48.090;9.754;2023-03-20T06:54:47;9.00;;;7.40;;
22965;SDS011;11649;48.090;9.754;2023-03-20T06:57:16;8.80;;;7.07;;
22965;SDS011;11649;48.090;9.754;2023-03-20T06:59:43;7.70;;;6.88;;
22965;SDS011;11649;48.090;9.754;2023-03-20T07:02:10;7.63;;;6.82;;
22965;SDS011;11649;48.090;9.754;2023-03-20T07:04:37;7.88;;;6.63;;
22965;SDS011;11649;48.090;9.754;2023-03-20T07:07:04;6.97;;;5.68;;
22965;SDS011;11649;48.090;9.754;2023-03-20T07:09:31;7.30;;;5.90;;
22965;SDS011;11649;48.090;9.754;2023-03-20T07:11:58;7.32;;;6.00;;
22965;SDS011;11649;48.090;9.754;2023-03-20T07:14:25;6.25;;;5.60;;
22965;SDS011;11649;48.090;9.754;2023-03-20T07:16:52;6.43;;;5.15;;
22965;SDS011;11649;48.090;9.754;2023-03-20T07:19:20;6.18;;;5.35;;
22965;SDS011;11649;48.090;9.754;2023-03-20T07:21:46;6.80;;;5.50;;
22965;SDS011;11649;48.090;9.754;2023-03-20T07:24:14;5.68;;;5.07;;
22965;SDS011;11649;48.090;9.754;2023-03-20T07:26:41;6.63;;;5.53;;
22965;SDS011;11649;48.090;9.754;2023-03-20T07:29:07;6.15;;;4.95;;
22965;SDS011;11649;48.090;9.754;2023-03-20T07:31:34;6.00;;;5.25;;
22965;SDS011;11649;48.090;9.754;2023-03-20T07:34:01;6.53;;;5.78;;
22965;SDS011;11649;48.090;9.754;2023-03-20T07:36:28;7.00;;;5.85;;
22965;SDS011;11649;48.090;9.754;2023-03-20T07:38:54;6.25;;;5.55;;
22965;SDS011;11649;48.090;9.754;2023-03-20T07:41:21;6.38;;;5.25;;
22965;SDS011;11649;48.090;9.754;2023-03-20T07:43:48;6.07;;;5.13;;
22965;SDS011;11649;48.090;9.754;2023-03-20T07:46:14;7.30;;;6.30;;
22965;SDS011;11649;48.090;9.754;2023-03-20T07:48:41;8.63;;;6.22;;
22965;SDS011;11649;48.090;9.754;2023-03-20T07:51:08;6.82;;;5.30;;
22965;SDS011;11649;48.090;9.754;2023-03-20T07:53:35;5.85;;;5.00;;
22965;SDS011;11649;48.090;9.754;2023-03-20T07:56:02;6.95;;;4.15;;
22965;SDS011;11649;48.090;9.754;2023-03-20T07:58:28;5.60;;;4.20;;
22965;SDS011;11649;48.090;9.754;2023-03-20T08:00:56;6.88;;;4.07;;
22965;SDS011;11649;48.090;9.754;2023-03-20T08:03:23;4.80;;;3.17;;
22965;SDS011;11649;48.090;9.754;2023-03-20T08:05:50;4.38;;;3.92;;
22965;SDS011;11649;48.090;9.754;2023-03-20T08:08:18;4.95;;;3.97;;
22965;SDS011;11649;48.090;9.754;2023-03-20T08:10:45;4.90;;;3.50;;
22965;SDS011;11649;48.090;9.754;2023-03-20T08:13:13;4.75;;;3.60;;
22965;SDS011;11649;48.090;9.754;2023-03-20T08:15:40;3.83;;;3.45;;
22965;SDS011;11649;48.090;9.754;2023-03-20T08:18:07;4.00;;;3.20;;
22965;SDS011;11649;48.090;9.754;2023-03-20T08:20:33;3.33;;;2.60;;
22965;SDS011;11649;48.090;9.754;2023-03-20T08:23:00;2.60;;;2.40;;
22965;SDS011;11649;48.090;9.754;2023-03-20T08:25:27;2.30;;;2.10;;
22965;SDS011;11649;48.090;9.754;2023-03-20T08:27:59;3.10;;;2.60;;
22965;SDS011;11649;48.090;9.754;2023-03-20T08:30:26;3.03;;;2.25;;
22965;SDS011;11649;48.090;9.754;2023-03-20T08:32:53;2.20;;;2.00;;
22965;SDS011;11649;48.090;9.754;2023-03-20T08:35:21;3.78;;;2.67;;
22965;SDS011;11649;48.090;9.754;2023-03-20T08:37:58;3.08;;;2.60;;
22965;SDS011;11649;48.090;9.754;2023-03-20T08:40:26;2.47;;;2.20;;
22965;SDS011;11649;48.090;9.754;2023-03-20T08:42:52;2.65;;;2.35;;
22965;SDS011;11649;48.090;9.754;2023-03-20T08:45:19;4.13;;;2.30;;
22965;SDS011;11649;48.090;9.754;2023-03-20T08:47:47;2.80;;;2.25;;
22965;SDS011;11649;48.090;9.754;2023-03-20T08:50:14;2.83;;;2.10;;
22965;SDS011;11649;48.090;9.754;2023-03-20T08:52:41;2.50;;;2.03;;
22965;SDS011;11649;48.090;9.754;2023-03-20T08:55:10;2.65;;;1.85;;
22965;SDS011;11649;48.090;9.754;2023-03-20T08:57:38;2.33;;;1.20;;
22965;SDS011;11649;48.090;9.754;2023-03-20T09:00:06;1.70;;;1.50;;
22965;SDS011;11649;48.090;9.754;2023-03-20T09:02:37;1.63;;;1.52;;
22965;SDS011;11649;48.090;9.754;2023-03-20T09:05:04;2.10;;;1.50;;
22965;SDS011;11649;48.090;9.754;2023-03-20T09:07:31;2.35;;;1.50;;
22965;SDS011;11649;48.090;9.754;2023-03-20T09:09:57;1.50;;;1.40;;
22965;SDS011;11649;48.090;9.754;2023-03-20T09:12:24;1.65;;;1.50;;
22965;SDS011;11649;48.090;9.754;2023-03-20T09:14:51;2.05;;;1.73;;
22965;SDS011;11649;48.090;9.754;2023-03-20T09:17:18;2.45;;;1.60;;
22965;SDS011;11649;48.090;9.754;2023-03-20T09:19:44;1.95;;;1.80;;
22965;SDS011;11649;48.090;9.754;2023-03-20T09:22:11;2.17;;;1.90;;
22965;SDS011;11649;48.090;9.754;2023-03-20T09:24:39;2.92;;;2.47;;
22965;SDS011;11649;48.090;9.754;2023-03-20T09:27:06;3.55;;;2.83;;
22965;SDS011;11649;48.090;9.754;2023-03-20T09:29:33;4.53;;;3.63;;
22965;SDS011;11649;48.090;9.754;2023-03-20T09:32:01;3.15;;;2.60;;
22965;SDS011;11649;48.090;9.754;2023-03-20T09:34:27;6.22;;;3.55;;
22965;SDS011;11649;48.090;9.754;2023-03-20T09:36:54;3.35;;;2.10;;
22965;SDS011;11649;48.090;9.754;2023-03-20T09:39:21;3.63;;;2.10;;
22965;SDS011;11649;48.090;9.754;2023-03-20T09:41:48;2.38;;;1.88;;
22965;SDS011;11649;48.090;9.754;2023-03-20T09:52:31;1.90;;;1.67;;
22965;SDS011;11649;48.090;9.754;2023-03-20T09:55:15;3.35;;;1.75;;
22965;SDS011;11649;48.090;9.754;2023-03-20T09:57:48;2.28;;;1.80;;
22965;SDS011;11649;48.090;9.754;2023-03-20T10:00:19;1.70;;;1.38;;
22965;SDS011;11649;48.090;9.754;2023-03-20T10:02:55;1.40;;;1.30;;
22965;SDS011;11649;48.090;9.754;2023-03-20T10:05:29;1.35;;;1.25;;
22965;SDS011;11649;48.090;9.754;2023-03-20T10:08:01;1.33;;;1.23;;
22965;SDS011;11649;48.090;9.754;2023-03-20T10:13:18;2.17;;;1.40;;
22965;SDS011;11649;48.090;9.754;2023-03-20T10:16:06;1.30;;;1.17;;
22965;SDS011;11649;48.090;9.754;2023-03-20T10:18:42;1.92;;;1.15;;
22965;SDS011;11649;48.090;9.754;2023-03-20T10:21:17;1.20;;;1.10;;
22965;SDS011;11649;48.090;9.754;2023-03-20T10:24:08;1.50;;;0.98;;
22965;SDS011;11649;48.090;9.754;2023-03-20T10:26:49;1.20;;;1.10;;
22965;SDS011;11649;48.090;9.754;2023-03-20T10:29:27;2.72;;;1.15;;
22965;SDS011;11649;48.090;9.754;2023-03-20T10:35:25;2.08;;;1.30;;
22965;SDS011;11649;48.090;9.754;2023-03-20T10:38:25;1.90;;;1.30;;
22965;SDS011;11649;48.090;9.754;2023-03-20T10:41:06;1.70;;;1.33;;
22965;SDS011;11649;48.090;9.754;2023-03-20T10:43:38;1.70;;;1.35;;
22965;SDS011;11649;48.090;9.754;2023-03-20T10:46:13;1.90;;;1.25;;
22965;SDS011;11649;48.090;9.754;2023-03-20T10:48:48;2.97;;;1.30;;
22965;SDS011;11649;48.090;9.754;2023-03-20T10:51:41;2.42;;;1.20;;
22965;SDS011;11649;48.090;9.754;2023-03-20T10:54:21;1.48;;;1.20;;
22965;SDS011;11649;48.090;9.754;2023-03-20T10:56:48;1.10;;;0.80;;
22965;SDS011;11649;48.090;9.754;2023-03-20T11:01:56;2.17;;;1.73;;
22965;SDS011;11649;48.090;9.754;2023-03-20T11:04:23;2.08;;;1.20;;
22965;SDS011;11649;48.090;9.754;2023-03-20T11:07:00;2.47;;;1.30;;
22965;SDS011;11649;48.090;9.754;2023-03-20T11:09:38;2.13;;;1.30;;
22965;SDS011;11649;48.090;9.754;2023-03-20T11:12:12;2.60;;;1.60;;
22965;SDS011;11649;48.090;9.754;2023-03-20T11:14:43;1.75;;;1.27;;
22965;SDS011;11649;48.090;9.754;2023-03-20T11:17:09;1.50;;;1.08;;
22965;SDS011;11649;48.090;9.754;2023-03-20T11:19:38;1.33;;;1.00;;
22965;SDS011;11649;48.090;9.754;2023-03-20T11:22:23;0.85;;;0.80;;
22965;SDS011;11649;48.090;9.754;2023-03-20T11:24:51;0.85;;;0.80;;
22965;SDS011;11649;48.090;9.754;2023-03-20T11:27:25;6.93;;;3.50;;
22965;SDS011;11649;48.090;9.754;2023-03-20T11:30:03;3.95;;;1.38;;
22965;SDS011;11649;48.090;9.754;2023-03-20T11:32:39;1.30;;;1.20;;
22965;SDS011;11649;48.090;9.754;2023-03-20T11:37:48;1.02;;;1.00;;
22965;SDS011;11649;48.090;9.754;2023-03-20T11:40:21;1.65;;;0.95;;
22965;SDS011;11649;48.090;9.754;2023-03-20T11:45:36;1.27;;;0.82;;
22965;SDS011;11649;48.090;9.754;2023-03-20T11:48:13;1.40;;;1.20;;
22965;SDS011;11649;48.090;9.754;2023-03-20T11:50:46;0.80;;;0.80;;
22965;SDS011;11649;48.090;9.754;2023-03-20T11:53:30;0.70;;;0.70;;
22965;SDS011;11649;48.090;9.754;2023-03-20T11:56:04;1.60;;;0.80;;
22965;SDS011;11649;48.090;9.754;2023-03-20T11:58:54;0.98;;;0.90;;
22965;SDS011;11649;48.090;9.754;2023-03-20T12:01:24;1.85;;;0.88;;
22965;SDS011;11649;48.090;9.754;2023-03-20T12:15:06;0.80;;;0.77;;
22965;SDS011;11649;48.090;9.754;2023-03-20T12:26:14;0.60;;;0.60;;
22965;SDS011;11649;48.090;9.754;2023-03-20T12:33:57;1.17;;;0.63;;
22965;SDS011;11649;48.090;9.754;2023-03-20T12:36:36;0.77;;;0.63;;
22965;SDS011;11649;48.090;9.754;2023-03-20T12:39:16;0.60;;;0.60;;
22965;SDS011;11649;48.090;9.754;2023-03-20T12:44:42;0.70;;;0.70;;
22965;SDS011;11649;48.090;9.754;2023-03-20T12:53:06;1.85;;;1.30;;
22965;SDS011;11649;48.090;9.754;2023-03-20T13:06:59;0.80;;;0.80;;
22965;SDS011;11649;48.090;9.754;2023-03-20T13:12:27;3.42;;;1.20;;
22965;SDS011;11649;48.090;9.754;2023-03-20T13:15:22;2.55;;;1.10;;
22965;SDS011;11649;48.090;9.754;2023-03-20T13:18:03;1.20;;;1.10;;
22965;SDS011;11649;48.090;9.754;2023-03-20T13:20:39;1.88;;;1.02;;
22965;SDS011;11649;48.090;9.754;2023-03-20T13:26:02;0.98;;;0.90;;
22965;SDS011;11649;48.090;9.754;2023-03-20T13:36:50;1.05;;;0.95;;
22965;SDS011;11649;48.090;9.754;2023-03-20T13:39:21;0.85;;;0.80;;
22965;SDS011;11649;48.090;9.754;2023-03-20T13:41:52;1.08;;;0.70;;
22965;SDS011;11649;48.090;9.754;2023-03-20T13:44:21;1.42;;;0.90;;
22965;SDS011;11649;48.090;9.754;2023-03-20T13:46:57;0.93;;;0.88;;
22965;SDS011;11649;48.090;9.754;2023-03-20T13:49:34;1.60;;;0.90;;
22965;SDS011;11649;48.090;9.754;2023-03-20T13:52:13;1.10;;;1.00;;
22965;SDS011;11649;48.090;9.754;2023-03-20T14:03:36;0.68;;;0.65;;
22965;SDS011;11649;48.090;9.754;2023-03-20T14:08:58;0.90;;;0.85;;
22965;SDS011;11649;48.090;9.754;2023-03-20T14:11:25;1.30;;;0.80;;
22965;SDS011;11649;48.090;9.754;2023-03-20T14:16:45;0.80;;;0.80;;
22965;SDS011;11649;48.090;9.754;2023-03-20T14:19:19;0.77;;;0.70;;
22965;SDS011;11649;48.090;9.754;2023-03-20T14:21:47;0.93;;;0.88;;
22965;SDS011;11649;48.090;9.754;2023-03-20T14:24:17;1.20;;;0.90;;
22965;SDS011;11649;48.090;9.754;2023-03-20T14:26:50;1.02;;;0.80;;
22965;SDS011;11649;48.090;9.754;2023-03-20T14:34:58;1.00;;;0.90;;
22965;SDS011;11649;48.090;9.754;2023-03-20T14:37:55;2.85;;;1.00;;
22965;SDS011;11649;48.090;9.754;2023-03-20T14:40:48;1.45;;;1.00;;
22965;SDS011;11649;48.090;9.754;2023-03-20T14:47:04;2.75;;;1.20;;
22965;SDS011;11649;48.090;9.754;2023-03-20T14:50:17;1.17;;;0.98;;
22965;SDS011;11649;48.090;9.754;2023-03-20T15:03:49;1.20;;;1.10;;
22965;SDS011;11649;48.090;9.754;2023-03-20T15:06:23;3.35;;;1.70;;
22965;SDS011;11649;48.090;9.754;2023-03-20T15:08:52;3.67;;;2.08;;
22965;SDS011;11649;48.090;9.754;2023-03-20T15:11:32;1.92;;;1.48;;
22965;SDS011;11649;48.090;9.754;2023-03-20T15:14:00;1.25;;;1.10;;
22965;SDS011;11649;48.090;9.754;2023-03-20T15:16:30;1.92;;;1.40;;
22965;SDS011;11649;48.090;9.754;2023-03-20T15:18:59;1.23;;;1.02;;
22965;SDS011;11649;48.090;9.754;2023-03-20T15:21:36;1.30;;;0.90;;
22965;SDS011;11649;48.090;9.754;2023-03-20T15:24:06;2.40;;;1.80;;
22965;SDS011;11649;48.090;9.754;2023-03-20T15:26:34;1.30;;;1.20;;
22965;SDS011;11649;48.090;9.754;2023-03-20T15:29:02;1.90;;;1.10;;
22965;SDS011;11649;48.090;9.754;2023-03-20T15:31:37;2.45;;;1.60;;
22965;SDS011;11649;48.090;9.754;2023-03-20T15:34:06;2.17;;;1.50;;
22965;SDS011;11649;48.090;9.754;2023-03-20T15:36:37;1.80;;;1.55;;
22965;SDS011;11649;48.090;9.754;2023-03-20T15:41:38;2.65;;;1.50;;
22965;SDS011;11649;48.090;9.754;2023-03-20T15:49:29;1.95;;;1.65;;
22965;SDS011;11649;48.090;9.754;2023-03-20T15:52:02;2.30;;;1.70;;
22965;SDS011;11649;48.090;9.754;2023-03-20T15:54:32;1.77;;;1.63;;
22965;SDS011;11649;48.090;9.754;2023-03-20T15:57:02;2.65;;;1.30;;
22965;SDS011;11649;48.090;9.754;2023-03-20T15:59:31;1.52;;;1.13;;
22965;SDS011;11649;48.090;9.754;2023-03-20T16:05:41;1.20;;;1.10;;
22965;SDS011;11649;48.090;9.754;2023-03-20T16:08:14;1.75;;;1.38;;
22965;SDS011;11649;48.090;9.754;2023-03-20T16:10:57;1.70;;;1.30;;
22965;SDS011;11649;48.090;9.754;2023-03-20T16:13:27;1.40;;;1.30;;
22965;SDS011;11649;48.090;9.754;2023-03-20T16:16:03;1.98;;;1.35;;
22965;SDS011;11649;48.090;9.754;2023-03-20T16:18:33;1.50;;;1.40;;
22965;SDS011;11649;48.090;9.754;2023-03-20T16:21:04;1.88;;;1.40;;
22965;SDS011;11649;48.090;9.754;2023-03-20T16:23:39;1.60;;;1.50;;
22965;SDS011;11649;48.090;9.754;2023-03-20T16:26:11;2.33;;;1.80;;
22965;SDS011;11649;48.090;9.754;2023-03-20T16:28:44;1.67;;;1.40;;
22965;SDS011;11649;48.090;9.754;2023-03-20T16:31:15;3.72;;;1.52;;
22965;SDS011;11649;48.090;9.754;2023-03-20T16:33:47;3.85;;;1.80;;
22965;SDS011;11649;48.090;9.754;2023-03-20T16:36:15;1.70;;;1.50;;
22965;SDS011;11649;48.090;9.754;2023-03-20T16:38:55;1.30;;;1.20;;
22965;SDS011;11649;48.090;9.754;2023-03-20T16:44:14;1.75;;;1.30;;
22965;SDS011;11649;48.090;9.754;2023-03-20T16:52:04;1.50;;;1.40;;
22965;SDS011;11649;48.090;9.754;2023-03-20T16:54:38;1.52;;;1.42;;
22965;SDS011;11649;48.090;9.754;2023-03-20T16:57:09;1.30;;;1.20;;
22965;SDS011;11649;48.090;9.754;2023-03-20T16:59:40;2.55;;;1.38;;
22965;SDS011;11649;48.090;9.754;2023-03-20T17:02:10;2.25;;;1.33;;
22965;SDS011;11649;48.090;9.754;2023-03-20T17:04:46;3.38;;;2.00;;
22965;SDS011;11649;48.090;9.754;2023-03-20T17:07:15;2.65;;;1.73;;
22965;SDS011;11649;48.090;9.754;2023-03-20T17:10:00;3.45;;;1.63;;
22965;SDS011;11649;48.090;9.754;2023-03-20T17:12:44;4.38;;;2.60;;
22965;SDS011;11649;48.090;9.754;2023-03-20T17:15:13;4.53;;;3.30;;
22965;SDS011;11649;48.090;9.754;2023-03-20T17:17:42;3.13;;;2.10;;
22965;SDS011;11649;48.090;9.754;2023-03-20T17:20:12;3.80;;;2.00;;
22965;SDS011;11649;48.090;9.754;2023-03-20T17:22:45;2.72;;;2.10;;
22965;SDS011;11649;48.090;9.754;2023-03-20T17:25:13;2.00;;;1.80;;
22965;SDS011;11649;48.090;9.754;2023-03-20T17:27:40;2.25;;;1.55;;
22965;SDS011;11649;48.090;9.754;2023-03-20T17:30:12;3.92;;;1.75;;
22965;SDS011;11649;48.090;9.754;2023-03-20T17:32:47;2.83;;;1.90;;
22965;SDS011;11649;48.090;9.754;2023-03-20T17:35:14;2.97;;;2.10;;
22965;SDS011;11649;48.090;9.754;2023-03-20T17:37:42;4.25;;;2.13;;
22965;SDS011;11649;48.090;9.754;2023-03-20T17:40:15;4.85;;;2.72;;
22965;SDS011;11649;48.090;9.754;2023-03-20T17:42:46;7.53;;;3.20;;
22965;SDS011;11649;48.090;9.754;2023-03-20T17:45:14;5.40;;;2.80;;
22965;SDS011;11649;48.090;9.754;2023-03-20T17:47:45;5.57;;;2.70;;
22965;SDS011;11649;48.090;9.754;2023-03-20T17:50:19;6.28;;;2.47;;
22965;SDS011;11649;48.090;9.754;2023-03-20T17:52:52;5.50;;;2.70;;
22965;SDS011;11649;48.090;9.754;2023-03-20T17:55:20;3.47;;;2.60;;
22965;SDS011;11649;48.090;9.754;2023-03-20T17:57:47;7.05;;;2.90;;